createdAt,value
2022-12-03T00:01:50.836Z,20
2022-12-03T00:04:22.692Z,20
2022-12-03T00:06:53.408Z,20
2022-12-03T00:09:23.776Z,20
2022-12-03T00:11:53.149Z,17
2022-12-03T00:14:24.331Z,19
2022-12-03T00:16:55.504Z,18
2022-12-03T00:19:24.572Z,16
2022-12-03T00:21:55.729Z,17
2022-12-03T00:24:26.445Z,16
2022-12-03T00:27:01.033Z,22
2022-12-03T00:29:31.635Z,20
2022-12-03T00:32:02.156Z,21
2022-12-03T00:34:32.544Z,20
2022-12-03T00:37:03.498Z,20
2022-12-03T00:39:34.433Z,16
2022-12-03T00:42:05.231Z,16
2022-12-03T00:44:36.064Z,12
2022-12-03T00:47:07.391Z,12
2022-12-03T00:49:38.006Z,16
2022-12-03T00:52:10.205Z,18
2022-12-03T00:54:39.727Z,18
2022-12-03T00:57:10.960Z,12
2022-12-03T00:59:42.151Z,16
2022-12-03T01:02:13.381Z,16
2022-12-03T01:04:44.290Z,16
2022-12-03T01:07:14.954Z,18
2022-12-03T01:09:45.967Z,16
2022-12-03T01:12:16.513Z,19
2022-12-03T01:14:48.159Z,20
2022-12-03T01:17:20.439Z,16
2022-12-03T01:19:51.682Z,16
2022-12-03T01:22:22.706Z,17
2022-12-03T01:24:53.914Z,16
2022-12-03T01:27:24.373Z,16
2022-12-03T01:29:55.187Z,12
2022-12-03T01:32:26.616Z,16
2022-12-03T01:34:57.903Z,16
2022-12-03T01:37:30.779Z,16
2022-12-03T01:40:01.787Z,15
2022-12-03T01:42:32.703Z,20
2022-12-03T01:45:04.212Z,18
2022-12-03T01:47:34.551Z,20
2022-12-03T01:50:05.063Z,17
2022-12-03T01:52:36.210Z,24
2022-12-03T01:55:07.471Z,20
2022-12-03T01:57:38.818Z,20
2022-12-03T02:00:10.031Z,17
2022-12-03T02:02:41.113Z,20
2022-12-03T02:05:12.130Z,28
2022-12-03T02:07:42.971Z,24
2022-12-03T02:10:13.802Z,23
2022-12-03T02:12:45.151Z,16
2022-12-03T02:15:15.446Z,20
2022-12-03T02:17:46.444Z,18
2022-12-03T02:20:17.465Z,18
2022-12-03T02:22:48.687Z,36
2022-12-03T02:25:20.458Z,24
2022-12-03T02:27:51.118Z,20
2022-12-03T02:30:22.512Z,20
2022-12-03T02:32:53.028Z,20
2022-12-03T02:35:24.514Z,20
2022-12-03T02:37:54.805Z,16
2022-12-03T02:40:26.213Z,16
2022-12-03T02:42:57.958Z,20
2022-12-03T02:45:28.732Z,20
2022-12-03T02:48:00.573Z,18
2022-12-03T02:50:31.282Z,20
2022-12-03T02:53:02.546Z,17
2022-12-03T02:55:36.729Z,20
2022-12-03T02:58:03.702Z,17
2022-12-03T03:00:34.905Z,16
2022-12-03T03:03:05.642Z,20
2022-12-03T03:05:36.376Z,16
2022-12-03T03:08:07.815Z,17
2022-12-03T03:10:39.522Z,16
2022-12-03T03:13:10.435Z,16
2022-12-03T03:15:41.739Z,14
2022-12-03T03:18:13.104Z,16
2022-12-03T03:20:44.292Z,16
2022-12-03T03:23:15.119Z,20
2022-12-03T03:25:46.274Z,20
2022-12-03T03:28:17.620Z,16
2022-12-03T03:30:49.117Z,20
2022-12-03T03:33:20.116Z,16
2022-12-03T03:35:49.572Z,19
2022-12-03T03:38:20.897Z,16
2022-12-03T03:40:52.184Z,16
2022-12-03T03:43:23.411Z,19
2022-12-03T03:45:54.671Z,16
2022-12-03T03:48:25.443Z,16
2022-12-03T03:50:56.535Z,16
2022-12-03T03:53:27.923Z,14
2022-12-03T03:55:59.159Z,12
2022-12-03T03:58:30.106Z,15
2022-12-03T04:01:01.947Z,16
2022-12-03T04:03:31.383Z,12
2022-12-03T04:06:02.731Z,12
2022-12-03T04:08:33.436Z,14
2022-12-03T04:11:04.259Z,16
2022-12-03T04:13:34.858Z,16
2022-12-03T04:16:05.466Z,12
2022-12-03T04:18:36.665Z,16
2022-12-03T04:21:07.234Z,13
2022-12-03T04:23:38.739Z,16
2022-12-03T04:26:10.265Z,12
2022-12-03T04:28:42.156Z,16
2022-12-03T04:31:12.611Z,16
2022-12-03T04:33:43.695Z,12
2022-12-03T04:36:14.259Z,15
2022-12-03T04:38:45.174Z,16
2022-12-03T04:41:15.700Z,13
2022-12-03T04:43:46.967Z,16
2022-12-03T04:46:17.926Z,12
2022-12-03T04:48:49.159Z,15
2022-12-03T04:51:19.783Z,14
2022-12-03T04:53:51.412Z,16
2022-12-03T04:56:22.268Z,12
2022-12-03T04:58:53.379Z,12
2022-12-03T05:01:24.403Z,9
2022-12-03T05:03:54.254Z,12
2022-12-03T05:06:25.272Z,12
2022-12-03T05:08:56.484Z,12
2022-12-03T05:11:27.924Z,15
2022-12-03T05:13:58.920Z,12
2022-12-03T05:16:29.658Z,13
2022-12-03T05:19:00.319Z,12
2022-12-03T05:21:31.238Z,13
2022-12-03T05:24:02.008Z,9
2022-12-03T05:26:32.630Z,16
2022-12-03T05:29:03.954Z,16
2022-12-03T05:31:35.705Z,12
2022-12-03T05:34:06.932Z,12
2022-12-03T05:36:38.549Z,14
2022-12-03T05:39:10.376Z,12
2022-12-03T05:41:41.700Z,10
2022-12-03T05:44:17.443Z,14
2022-12-03T05:46:44.433Z,10
2022-12-03T05:49:15.780Z,19
2022-12-03T05:51:46.150Z,20
2022-12-03T05:54:17.345Z,16
2022-12-03T05:56:49.905Z,16
2022-12-03T05:59:21.138Z,12
2022-12-03T06:01:52.206Z,15
2022-12-03T06:04:23.665Z,16
2022-12-03T06:06:55.411Z,16
2022-12-03T06:09:27.190Z,16
2022-12-03T06:11:58.938Z,20
2022-12-03T06:14:30.282Z,17
2022-12-03T06:17:01.823Z,16
2022-12-03T06:19:32.496Z,16
2022-12-03T06:22:03.432Z,18
2022-12-03T06:24:33.624Z,20
2022-12-03T06:27:04.508Z,12
2022-12-03T06:29:35.441Z,16
2022-12-03T06:32:06.234Z,15
2022-12-03T06:34:37.506Z,19
2022-12-03T06:37:09.057Z,28
2022-12-03T06:39:40.462Z,24
2022-12-03T06:42:11.678Z,20
2022-12-03T06:44:43.064Z,16
2022-12-03T06:47:13.677Z,20
2022-12-03T06:49:44.991Z,16
2022-12-03T06:52:15.823Z,21
2022-12-03T06:54:46.692Z,20
2022-12-03T06:57:16.847Z,24
2022-12-03T06:59:47.180Z,20
2022-12-03T07:02:18.875Z,20
2022-12-03T07:04:50.375Z,23
2022-12-03T07:07:21.323Z,25
2022-12-03T07:09:52.822Z,24
2022-12-03T07:12:24.585Z,24
2022-12-03T07:14:56.448Z,24
2022-12-03T07:17:26.887Z,27
2022-12-03T07:19:57.920Z,24
2022-12-03T07:22:27.303Z,32
2022-12-03T07:24:57.981Z,24
2022-12-03T07:27:29.064Z,28
2022-12-03T07:29:59.968Z,24
2022-12-03T07:32:30.661Z,28
2022-12-03T07:35:01.710Z,20
2022-12-03T07:37:34.000Z,24
2022-12-03T07:40:04.928Z,31
2022-12-03T07:42:35.979Z,25
2022-12-03T07:45:06.939Z,36
2022-12-03T07:47:37.771Z,36
2022-12-03T07:50:08.732Z,31
2022-12-03T07:52:39.272Z,26
2022-12-03T07:55:10.515Z,28
2022-12-03T07:57:41.323Z,24
2022-12-03T08:00:13.608Z,32
2022-12-03T08:02:43.176Z,24
2022-12-03T08:05:14.041Z,24
2022-12-03T08:07:44.478Z,28
2022-12-03T08:10:15.777Z,29
2022-12-03T08:12:46.341Z,28
2022-12-03T08:15:17.310Z,30
2022-12-03T08:17:47.904Z,24
2022-12-03T08:20:20.387Z,32
2022-12-03T08:22:51.449Z,28
2022-12-03T08:25:22.475Z,25
2022-12-03T08:27:53.535Z,32
2022-12-03T08:30:24.886Z,28
2022-12-03T08:32:55.686Z,28
2022-12-03T08:35:27.127Z,26
2022-12-03T08:37:58.411Z,28
2022-12-03T08:40:30.383Z,24
2022-12-03T08:42:59.565Z,28
2022-12-03T08:45:30.829Z,33
2022-12-03T08:48:01.758Z,24
2022-12-03T08:50:32.566Z,28
2022-12-03T08:53:01.584Z,24
2022-12-03T08:55:32.802Z,24
2022-12-03T08:58:03.180Z,24
2022-12-03T09:00:34.405Z,20
2022-12-03T09:03:05.724Z,23
2022-12-03T09:05:36.843Z,24
2022-12-03T09:08:07.622Z,24
2022-12-03T09:10:40.307Z,20
2022-12-03T09:13:11.178Z,17
2022-12-03T09:15:42.898Z,20
2022-12-03T09:18:13.689Z,24
2022-12-03T09:20:44.871Z,28
2022-12-03T09:23:16.308Z,23
2022-12-03T09:25:48.968Z,21
2022-12-03T09:28:20.032Z,28
2022-12-03T09:30:51.192Z,20
2022-12-03T09:33:22.034Z,24
2022-12-03T09:35:53.607Z,20
2022-12-03T09:38:24.879Z,24
2022-12-03T09:40:56.552Z,24
2022-12-03T09:43:43.286Z,20
2022-12-03T09:45:58.516Z,24
2022-12-03T09:48:29.687Z,20
2022-12-03T09:51:00.705Z,26
2022-12-03T09:53:31.404Z,24
2022-12-03T09:56:02.702Z,24
2022-12-03T09:58:34.815Z,32
2022-12-03T10:01:04.218Z,20
2022-12-03T10:03:34.935Z,22
2022-12-03T10:06:05.675Z,24
2022-12-03T10:08:37.098Z,23
2022-12-03T10:11:08.544Z,24
2022-12-03T10:13:39.804Z,22
2022-12-03T10:16:10.973Z,24
2022-12-03T10:18:42.108Z,24
2022-12-03T10:21:13.489Z,28
2022-12-03T10:23:44.104Z,24
2022-12-03T10:26:15.639Z,24
2022-12-03T10:28:47.086Z,24
2022-12-03T10:31:17.928Z,20
2022-12-03T10:33:49.490Z,23
2022-12-03T10:36:21.597Z,20
2022-12-03T10:38:52.560Z,29
2022-12-03T10:41:24.105Z,20
2022-12-03T10:43:55.205Z,32
2022-12-03T10:46:26.296Z,24
2022-12-03T10:48:57.909Z,18
2022-12-03T10:51:29.227Z,21
2022-12-03T10:54:00.434Z,16
2022-12-03T10:56:31.789Z,24
2022-12-03T10:59:04.190Z,19
2022-12-03T11:01:35.231Z,19
2022-12-03T11:04:06.547Z,20
2022-12-03T11:06:37.523Z,24
2022-12-03T11:09:09.352Z,19
2022-12-03T11:11:39.842Z,20
2022-12-03T11:14:11.423Z,22
2022-12-03T11:16:42.219Z,24
2022-12-03T11:19:13.482Z,24
2022-12-03T11:21:44.912Z,24
2022-12-03T11:24:15.767Z,24
2022-12-03T11:26:46.668Z,24
2022-12-03T11:29:17.793Z,24
2022-12-03T11:31:48.689Z,24
2022-12-03T11:34:19.868Z,24
2022-12-03T11:37:01.380Z,20
2022-12-03T11:39:22.162Z,21
2022-12-03T11:41:52.977Z,24
2022-12-03T11:44:24.269Z,24
2022-12-03T11:46:55.493Z,18
2022-12-03T11:49:28.001Z,19
2022-12-03T11:51:58.843Z,20
2022-12-03T11:54:30.035Z,21
2022-12-03T11:57:01.171Z,20
2022-12-03T11:59:32.499Z,28
2022-12-03T12:02:03.528Z,24
2022-12-03T12:04:34.653Z,20
2022-12-03T12:07:05.708Z,20
2022-12-03T12:09:37.098Z,24
2022-12-03T12:12:08.134Z,24
2022-12-03T12:14:40.011Z,24
2022-12-03T12:17:11.349Z,23
2022-12-03T12:19:42.951Z,24
2022-12-03T12:22:13.931Z,21
2022-12-03T12:24:45.031Z,24
2022-12-03T12:27:16.218Z,24
2022-12-03T12:29:47.745Z,20
2022-12-03T12:32:18.525Z,22
2022-12-03T12:34:49.989Z,20
2022-12-03T12:37:21.236Z,24
2022-12-03T12:39:53.170Z,21
2022-12-03T12:42:23.800Z,24
2022-12-03T12:44:54.941Z,20
2022-12-03T12:47:26.204Z,23
2022-12-03T12:49:57.941Z,20
2022-12-03T12:52:29.874Z,20
2022-12-03T12:55:04.826Z,24
2022-12-03T12:57:32.740Z,24
2022-12-03T13:00:04.873Z,20
2022-12-03T13:02:36.107Z,21
2022-12-03T13:05:07.645Z,24
2022-12-03T13:07:39.171Z,32
2022-12-03T13:10:10.339Z,24
2022-12-03T13:12:41.786Z,28
2022-12-03T13:15:14.196Z,32
2022-12-03T13:17:45.503Z,28
2022-12-03T13:20:17.018Z,37
2022-12-03T13:22:48.389Z,28
2022-12-03T13:25:32.733Z,20
2022-12-03T13:27:51.096Z,24
2022-12-03T13:30:22.557Z,20
2022-12-03T13:32:54.264Z,20
2022-12-03T13:35:25.780Z,20
2022-12-03T13:37:57.845Z,24
2022-12-03T13:40:29.798Z,24
2022-12-03T13:43:01.785Z,24
2022-12-03T13:45:33.287Z,24
2022-12-03T13:48:04.381Z,27
2022-12-03T13:50:35.383Z,24
2022-12-03T13:53:06.626Z,22
2022-12-03T13:55:37.812Z,24
2022-12-03T13:58:08.680Z,20
2022-12-03T14:00:39.948Z,24
2022-12-03T14:03:10.971Z,27
2022-12-03T14:05:42.904Z,28
2022-12-03T14:08:13.715Z,20
2022-12-03T14:10:45.247Z,26
2022-12-03T14:13:16.535Z,32
2022-12-03T14:15:47.938Z,29
2022-12-03T14:18:18.838Z,27
2022-12-03T14:20:50.705Z,29
2022-12-03T14:23:21.853Z,26
2022-12-03T14:25:53.258Z,20
2022-12-03T14:28:24.248Z,24
2022-12-03T14:30:55.254Z,24
2022-12-03T14:33:26.436Z,24
2022-12-03T14:35:57.032Z,24
2022-12-03T14:38:28.574Z,22
2022-12-03T14:40:59.498Z,23
2022-12-03T14:43:30.697Z,24
2022-12-03T14:46:01.672Z,24
2022-12-03T14:48:32.816Z,22
2022-12-03T14:51:04.171Z,22
2022-12-03T14:53:35.202Z,24
2022-12-03T14:56:06.007Z,23
2022-12-03T14:58:36.704Z,28
2022-12-03T15:01:08.195Z,24
2022-12-03T15:03:39.785Z,24
2022-12-03T15:06:10.465Z,20
2022-12-03T15:08:41.815Z,20
2022-12-03T15:11:14.230Z,20
2022-12-03T15:13:45.579Z,24
2022-12-03T15:16:17.840Z,20
2022-12-03T15:18:48.713Z,24
2022-12-03T15:21:19.807Z,20
2022-12-03T15:23:50.867Z,20
2022-12-03T15:26:22.098Z,40
2022-12-03T15:28:53.255Z,37
2022-12-03T15:31:24.695Z,25
2022-12-03T15:33:55.904Z,34
2022-12-03T15:36:26.813Z,25
2022-12-03T15:38:58.456Z,24
2022-12-03T15:41:29.177Z,41
2022-12-03T15:44:00.239Z,42
2022-12-03T15:46:31.055Z,53
2022-12-03T15:49:02.302Z,56
2022-12-03T15:51:33.295Z,28
2022-12-03T15:54:04.325Z,29
2022-12-03T15:56:35.118Z,19
2022-12-03T15:59:05.932Z,24
2022-12-03T16:01:37.395Z,28
2022-12-03T16:04:08.621Z,22
2022-12-03T16:06:40.893Z,21
2022-12-03T16:09:11.932Z,24
2022-12-03T16:11:44.882Z,23
2022-12-03T16:14:16.165Z,24
2022-12-03T16:16:48.181Z,24
2022-12-03T16:19:19.125Z,24
2022-12-03T16:21:49.980Z,27
2022-12-03T16:24:20.627Z,28
2022-12-03T16:26:51.825Z,28
2022-12-03T16:29:22.944Z,26
2022-12-03T16:31:52.402Z,21
2022-12-03T16:34:23.292Z,24
2022-12-03T16:36:54.422Z,20
2022-12-03T16:39:25.149Z,28
2022-12-03T16:41:56.664Z,24
2022-12-03T16:47:04.298Z,23
2022-12-03T16:49:35.631Z,28
2022-12-03T16:52:06.592Z,22
2022-12-03T16:54:37.828Z,28
2022-12-03T16:57:08.869Z,24
2022-12-03T16:59:39.921Z,28
2022-12-03T17:02:10.816Z,24
2022-12-03T17:04:41.984Z,22
2022-12-03T17:07:14.173Z,23
2022-12-03T17:09:45.048Z,24
2022-12-03T17:12:16.309Z,25
2022-12-03T17:14:47.346Z,24
2022-12-03T17:17:18.310Z,19
2022-12-03T17:19:49.468Z,28
2022-12-03T17:22:20.605Z,16
2022-12-03T17:24:52.689Z,24
2022-12-03T17:27:23.467Z,28
2022-12-03T17:29:55.892Z,23
2022-12-03T17:32:26.063Z,24
2022-12-03T17:34:57.115Z,24
2022-12-03T17:37:29.217Z,24
2022-12-03T17:40:00.758Z,24
2022-12-03T17:42:31.719Z,20
2022-12-03T17:45:02.025Z,24
2022-12-03T17:47:33.164Z,20
2022-12-03T17:50:04.855Z,18
2022-12-03T17:52:35.624Z,21
2022-12-03T17:55:13.112Z,21
2022-12-03T17:57:37.160Z,24
2022-12-03T18:00:08.332Z,16
2022-12-03T18:02:39.339Z,16
2022-12-03T18:05:10.786Z,20
2022-12-03T18:07:41.856Z,24
2022-12-03T18:10:13.356Z,20
2022-12-03T18:12:44.445Z,20
2022-12-03T18:15:15.594Z,20
2022-12-03T18:17:46.265Z,16
2022-12-03T18:20:15.642Z,28
2022-12-03T18:22:46.533Z,19
2022-12-03T18:25:17.477Z,16
2022-12-03T18:27:48.408Z,16
2022-12-03T18:30:19.570Z,24
2022-12-03T18:32:50.576Z,24
2022-12-03T18:35:21.528Z,20
2022-12-03T18:37:52.719Z,20
2022-12-03T18:40:24.024Z,20
2022-12-03T18:42:54.974Z,19
2022-12-03T18:45:25.863Z,17
2022-12-03T18:47:57.981Z,16
2022-12-03T18:50:29.088Z,19
2022-12-03T18:53:00.104Z,19
2022-12-03T18:55:31.084Z,20
2022-12-03T18:58:02.131Z,16
2022-12-03T19:00:33.585Z,16
2022-12-03T19:03:05.027Z,20
2022-12-03T19:05:35.709Z,16
2022-12-03T19:08:06.430Z,20
2022-12-03T19:10:37.625Z,13
2022-12-03T19:13:09.394Z,20
2022-12-03T19:15:40.548Z,17
2022-12-03T19:18:11.691Z,18
2022-12-03T19:20:43.247Z,19
2022-12-03T19:23:14.584Z,25
2022-12-03T19:25:45.867Z,16
2022-12-03T19:28:16.700Z,16
2022-12-03T19:30:48.108Z,23
2022-12-03T19:33:21.511Z,16
2022-12-03T19:35:50.166Z,20
2022-12-03T19:38:20.812Z,20
2022-12-03T19:40:51.550Z,20
2022-12-03T19:43:23.823Z,22
2022-12-03T19:45:55.713Z,20
2022-12-03T19:48:30.345Z,24
2022-12-03T19:51:19.703Z,16
2022-12-03T19:53:32.499Z,14
2022-12-03T19:56:06.823Z,18
2022-12-03T19:58:39.075Z,16
2022-12-03T20:01:10.327Z,20
2022-12-03T20:03:41.523Z,15
2022-12-03T20:06:13.083Z,20
2022-12-03T20:08:44.023Z,16
2022-12-03T20:11:13.747Z,15
2022-12-03T20:13:44.943Z,16
2022-12-03T20:16:15.601Z,19
2022-12-03T20:18:46.239Z,16
2022-12-03T20:21:17.413Z,16
2022-12-03T20:23:48.214Z,16
2022-12-03T20:26:19.366Z,13
2022-12-03T20:28:50.442Z,13
2022-12-03T20:31:20.778Z,13
2022-12-03T20:33:51.763Z,12
2022-12-03T20:36:22.918Z,12
2022-12-03T20:38:53.866Z,12
2022-12-03T20:41:25.375Z,13
2022-12-03T20:43:56.243Z,16
2022-12-03T20:46:27.906Z,15
2022-12-03T20:48:58.876Z,12
2022-12-03T20:51:29.898Z,12
2022-12-03T20:54:01.053Z,13
2022-12-03T20:56:32.592Z,16
2022-12-03T20:59:01.978Z,13
2022-12-03T21:01:33.365Z,12
2022-12-03T21:04:05.689Z,12
2022-12-03T21:06:36.639Z,12
2022-12-03T21:09:07.772Z,12
2022-12-03T21:11:39.238Z,11
2022-12-03T21:14:10.378Z,12
2022-12-03T21:19:11.216Z,12
2022-12-03T21:21:42.252Z,12
2022-12-03T21:24:14.328Z,9
2022-12-03T21:26:45.644Z,12
2022-12-03T21:29:16.865Z,12
2022-12-03T21:31:48.237Z,13
2022-12-03T21:34:19.005Z,12
2022-12-03T21:36:50.291Z,9
2022-12-03T21:39:20.844Z,12
2022-12-03T21:42:19.546Z,16
2022-12-03T21:44:22.516Z,12
2022-12-03T21:47:08.559Z,12
2022-12-03T21:49:24.946Z,12
2022-12-03T21:51:56.022Z,12
2022-12-03T21:54:27.051Z,12
2022-12-03T21:56:59.387Z,13
2022-12-03T21:59:30.386Z,15
2022-12-03T22:02:01.695Z,12
2022-12-03T22:04:34.060Z,16
2022-12-03T22:07:05.315Z,20
2022-12-03T22:09:36.204Z,12
2022-12-03T22:12:07.306Z,12
2022-12-03T22:14:38.285Z,11
2022-12-03T22:17:09.962Z,12
2022-12-03T22:19:41.332Z,12
2022-12-03T22:22:12.823Z,16
2022-12-03T22:24:44.471Z,16
2022-12-03T22:27:15.867Z,12
2022-12-03T22:29:47.091Z,12
2022-12-03T22:32:17.909Z,12
2022-12-03T22:34:49.077Z,10
2022-12-03T22:37:20.167Z,12
2022-12-03T22:39:51.725Z,12
2022-12-03T22:42:23.043Z,12
2022-12-03T22:44:58.211Z,8
2022-12-03T22:47:29.553Z,12
2022-12-03T22:50:01.025Z,12
2022-12-03T22:52:32.133Z,8
2022-12-03T22:57:39.491Z,9
2022-12-03T23:00:11.649Z,8
2022-12-03T23:02:43.397Z,8
2022-12-03T23:05:14.414Z,11
2022-12-03T23:07:45.385Z,8
2022-12-03T23:10:16.593Z,9
2022-12-03T23:12:47.571Z,8
2022-12-03T23:15:18.778Z,9
2022-12-03T23:17:49.553Z,8
2022-12-03T23:20:20.414Z,16
2022-12-03T23:22:51.140Z,9
2022-12-03T23:25:22.051Z,12
2022-12-03T23:27:53.043Z,12
2022-12-03T23:30:23.438Z,12
2022-12-03T23:32:54.155Z,11
2022-12-03T23:35:24.720Z,11
2022-12-03T23:37:55.773Z,8
2022-12-03T23:40:25.990Z,8
2022-12-03T23:42:56.441Z,8
2022-12-03T23:45:27.329Z,12
2022-12-03T23:47:58.553Z,8
2022-12-03T23:50:29.342Z,10
2022-12-03T23:53:00.513Z,12
2022-12-03T23:55:31.300Z,8
2022-12-03T23:58:01.810Z,8
